• Join FlightAware (Why Join?)
  • Login
  • US Flag 
05:00AM EDT


 

Airport Tracker/Info


-or-


 

Live Flight TrackerFlight Track Log ✈ VRD360 ✈ 06-May-2013 ✈ KLAX - KBOS

Flight Track Log - Related Links

Times and Time Zones

All times are in EDT time to prevent confusion due to time zone crossing. See the VRD360 flight status page for this flight to view local times or setup timezone preferences in your user account.

Time Position Orientation Groundspeed Altitude Reporting Facility
EDT Latitude Longitude Course Direction KTS MPH feet Rate Location/Type
12:22PM 34.0030 -118.2540 65° Northeast 272 313 4,300  Level FlightAware
12:23PM 34.0180 -118.2170 64° Northeast 282 325 5,300 2,580 Climbing FlightAware
12:23PM 34.0350 -118.1740 64° Northeast 284 327 6,700 2,580 Climbing FlightAware
12:24PM 34.0540 -118.1430 54° Northeast 290 334 7,700 2,220 Climbing FlightAware
12:24PM 34.0680 -118.1240 48° Northeast 301 346 8,200 2,220 Climbing FlightAware
12:25PM 34.0970 -118.0850 48° Northeast 307 353 9,400 2,220 Climbing FlightAware
12:25PM 34.1100 -118.0700 44° Northeast 309 356 9,900 2,160 Climbing FlightAware
12:25PM 34.1240 -118.0590 33° Northeast 319 367 10,300 2,160 Climbing FlightAware
12:25PM 34.1470 -118.0540 10° North 323 372 10,800 2,100 Climbing FlightAware
12:26PM 34.1830 -118.0550 359° North 324 373 11,700 1,920 Climbing FlightAware
12:26PM 34.2240 -118.0390 18° North 337 388 12,600 1,980 Climbing FlightAware
12:26PM 34.2410 -118.0150 49° Northeast 337 388 13,200 2,040 Climbing FlightAware
12:27PM 34.2520 -117.9400 80° East 338 389 14,500 1,440 Climbing FlightAware
12:28PM 34.2580 -117.8550 85° East 368 423 15,300 1,020 Climbing FlightAware
12:28PM 34.2640 -117.7700 85° East 394 453 16,000 1,380 Climbing FlightAware
12:29PM 34.2720 -117.6840 84° East 401 461 17,200 1,380 Climbing FlightAware
12:29PM 34.2810 -117.6390 76° East 417 480 17,400 780 Climbing FlightAware
12:30PM 34.3310 -117.5600 53° Northeast 434 499 18,000 1,200 Climbing FlightAware
12:31PM 34.3810 -117.4840 51° Northeast 444 511 19,000 1,620 Climbing FlightAware
12:31PM 34.4330 -117.4040 52° Northeast 448 516 20,200 1,380 Climbing FlightAware
12:32PM 34.4930 -117.3120 52° Northeast 461 531 21,000 1,620 Climbing FlightAware
12:33PM 34.5440 -117.2320 52° Northeast 450 518 22,500 1,680 Climbing FlightAware
12:34PM 34.5990 -117.1480 51° Northeast 458 527 23,400 1,260 Climbing FlightAware
12:34PM 34.6540 -117.0620 52° Northeast 463 533 24,300 1,080 Climbing FlightAware
12:35PM 34.7080 -116.9780 52° Northeast 477 549 24,900 900 Climbing FlightAware
12:36PM 34.7700 -116.8810 52° Northeast 486 559 25,600 840 Climbing FlightAware
12:36PM 34.8240 -116.7960 52° Northeast 498 573 26,100 780 Climbing FlightAware
12:37PM 34.8710 -116.7230 52° Northeast 507 583 26,600 720 Climbing FlightAware
12:38PM 34.9480 -116.6030 52° Northeast 517 595 27,200 780 Climbing FlightAware
12:39PM 35.0220 -116.5050 47° Northeast 521 600 27,900 840 Climbing FlightAware
12:39PM 35.0890 -116.4210 46° Northeast 528 608 28,400 720 Climbing FlightAware
12:40PM 35.1650 -116.3260 46° Northeast 531 611 29,000 720 Climbing FlightAware
12:41PM 35.2340 -116.2400 45° Northeast 535 616 29,500 720 Climbing FlightAware
12:41PM 35.3040 -116.1520 46° Northeast 537 618 30,000 1,260 Climbing FlightAware
12:42PM 35.3830 -116.0520 46° Northeast 524 603 31,300 1,440 Climbing FlightAware
12:43PM 35.4540 -115.9620 46° Northeast 517 595 32,200 1,200 Climbing FlightAware
12:43PM 35.5230 -115.8750 46° Northeast 509 586 33,000 600 Climbing FlightAware
12:44PM 35.5870 -115.7930 46° Northeast 500 575 33,000  Level FlightAware
12:45PM 35.6600 -115.7010 46° Northeast 498 573 33,000  Level FlightAware
12:46PM 35.7250 -115.6170 46° Northeast 499 574 33,000  Level FlightAware
12:46PM 35.7870 -115.5380 46° Northeast 496 571 33,000 -120 Level FlightAware
12:47PM 35.8510 -115.4560 46° Northeast 498 573 32,900  Descending FlightAware
12:48PM 35.9230 -115.3630 46° Northeast 498 573 33,000 60 Climbing FlightAware
12:48PM 35.9850 -115.2830 46° Northeast 496 571 33,000  Level FlightAware
12:49PM 36.0540 -115.1810 50° Northeast 497 572 33,000  Level FlightAware
12:50PM 36.1020 -115.0850 58° Northeast 495 570 33,000  Level FlightAware
12:50PM 36.1380 -114.9850 66° East 493 567 33,000  Level FlightAware
12:51PM 36.1780 -114.8680 67° East 494 568 33,000  Level FlightAware
12:52PM 36.2120 -114.7650 68° East 492 566 33,000  Level FlightAware
12:53PM 36.2520 -114.6430 68° East 491 565 33,000  Level FlightAware
12:53PM 36.2860 -114.5420 67° East 488 562 33,000  Level FlightAware
12:54PM 36.3240 -114.4270 68° East 488 562 33,000  Level FlightAware
12:55PM 36.3580 -114.3220 68° East 489 563 33,000  Level FlightAware
12:55PM 36.3970 -114.2030 68° East 489 563 33,000  Level FlightAware
12:56PM 36.4300 -114.1000 68° East 489 563 33,000 60 Level FlightAware
12:57PM 36.4630 -113.9990 68° East 484 557 33,100  Climbing FlightAware
12:57PM 36.5010 -113.8820 68° East 482 555 33,000 -120 Descending FlightAware
12:58PM 36.5330 -113.7800 69° East 482 555 33,000  Level FlightAware
12:59PM 36.5700 -113.6640 68° East 477 549 33,000  Level FlightAware
01:00PM 36.6040 -113.5610 68° East 476 548 33,000  Level FlightAware
01:00PM 36.6350 -113.4610 69° East 475 547 33,000  Level FlightAware
01:01PM 36.6710 -113.3470 68° East 471 542 33,000  Level FlightAware
01:02PM 36.7020 -113.2510 68° East 469 540 33,000  Level FlightAware
01:02PM 36.7390 -113.1330 69° East 467 537 33,000  Level FlightAware
01:03PM 36.7700 -113.0360 68° East 467 537 33,000  Level FlightAware
01:04PM 36.8010 -112.9340 69° East 470 541 33,000  Level FlightAware
01:04PM 36.8370 -112.8190 69° East 473 544 33,000  Level FlightAware
01:05PM 36.8700 -112.7140 69° East 474 545 33,000  Level FlightAware
01:06PM 36.8990 -112.6200 69° East 475 547 33,000  Level FlightAware
01:06PM 36.9320 -112.5120 69° East 474 545 33,000  Level FlightAware
01:07PM 36.9660 -112.4020 69° East 473 544 33,000  Level FlightAware
01:08PM 37.0030 -112.2800 69° East 471 542 33,000  Level FlightAware
01:09PM 37.0410 -112.1560 69° East 471 542 33,000  Level FlightAware
01:10PM 37.0670 -112.0690 69° East 471 542 33,000  Level FlightAware
01:10PM 37.0940 -111.9820 69° East 471 542 33,000  Level FlightAware
01:11PM 37.1200 -111.8950 69° East 471 542 33,000  Level FlightAware
01:12PM 37.1540 -111.7870 68° East 471 542 33,000  Level FlightAware
01:12PM 37.1800 -111.7000 69° East 471 542 33,000  Level FlightAware
01:13PM 37.2070 -111.6130 69° East 471 542 33,000  Level FlightAware
01:14PM 37.2330 -111.5260 69° East 471 542 33,000  Level FlightAware
01:14PM 37.2600 -111.4400 68° East 471 542 33,000  Level FlightAware
01:15PM 37.2930 -111.3310 69° East 471 542 33,000  Level FlightAware
01:16PM 37.3200 -111.2440 69° East 471 542 33,000  Level FlightAware
01:17PM 37.3460 -111.1570 69° East 471 542 33,000  Level FlightAware
01:17PM 37.3730 -111.0700 69° East 471 542 33,000  Level FlightAware
01:18PM 37.3990 -110.9830 69° East 471 542 33,000 420 Level FlightAware
01:22PM 37.6620 -110.1690 68° East 465 535 35,000 420 Climbing FlightAware
01:23PM 37.6950 -110.0690 67° East 465 535 35,000  Level FlightAware
01:23PM 37.7270 -109.9730 67° East 465 535 35,000  Level FlightAware
01:25PM 37.8090 -109.7230 67° East 467 537 35,000  Level FlightAware
01:26PM 37.8420 -109.6220 67° East 466 536 35,000  Level FlightAware
01:26PM 37.8750 -109.5190 68° East 466 536 35,000  Level FlightAware
01:27PM 37.9070 -109.4200 68° East 465 535 35,000  Level FlightAware
01:28PM 37.9420 -109.3110 68° East 465 535 35,000  Level FlightAware
01:29PM 38.0110 -109.0970 68° East 464 534 35,000  Level FlightAware
01:30PM 38.0390 -109.0090 68° East 465 535 35,000  Level FlightAware
01:30PM 38.0770 -108.8900 68° East 464 534 35,000  Level FlightAware
01:31PM 38.1070 -108.7940 68° East 464 534 35,000  Level FlightAware
01:32PM 38.1390 -108.6920 68° East 462 532 35,000  Level FlightAware
01:33PM 38.1750 -108.5770 68° East 460 529 35,000  Level FlightAware
01:33PM 38.2080 -108.4730 68° East 460 529 35,000  Level FlightAware
01:34PM 38.2430 -108.3600 68° East 457 526 35,000  Level FlightAware
01:36PM 38.3140 -108.1320 68° East 457 526 35,000  Level FlightAware
01:36PM 38.3490 -108.0170 69° East 457 526 35,000  Level FlightAware
01:37PM 38.3790 -107.9190 69° East 459 528 35,000  Level FlightAware
01:38PM 38.4120 -107.8120 68° East 460 529 35,000  Level FlightAware
01:38PM 38.4440 -107.7060 69° East 461 531 35,000  Level FlightAware
01:39PM 38.4770 -107.5990 68° East 461 531 35,000  Level FlightAware
01:40PM 38.5060 -107.5020 69° East 461 531 35,000  Level FlightAware
01:41PM 38.5872 -107.2310 69° East 461 531 35,000  Level FlightAware ADS-B
01:42PM 38.6115 -107.1490 69° East 461 531 35,000  Level FlightAware ADS-B
01:43PM 38.6614 -106.9820 69° East 462 532 35,000  Level FlightAware ADS-B
01:44PM 38.6847 -106.9030 69° East 463 533 35,000  Level FlightAware ADS-B
01:44PM 38.7076 -106.8250 69° East 465 535 35,000  Level FlightAware ADS-B
01:45PM 38.7317 -106.7430 69° East 466 536 35,000  Level FlightAware ADS-B
01:45PM 38.7566 -106.6580 69° East 469 540 35,000  Level FlightAware ADS-B
01:46PM 38.7821 -106.5700 70° East 469 540 35,000  Level FlightAware ADS-B
01:46PM 38.8069 -106.4850 69° East 473 544 35,000  Level FlightAware ADS-B
01:47PM 38.8304 -106.4040 70° East 474 545 35,000 60 Level FlightAware ADS-B
01:47PM 38.8556 -106.3170 70° East 474 545 35,100  Climbing FlightAware ADS-B
01:48PM 38.8789 -106.2360 70° East 473 544 35,000 -120 Descending FlightAware ADS-B
01:48PM 38.9040 -106.1490 70° East 473 544 35,000  Level FlightAware ADS-B
01:49PM 38.9264 -106.0700 70° East 473 544 35,000  Level FlightAware ADS-B
01:49PM 38.9490 -105.9910 70° East 474 545 35,000  Level FlightAware ADS-B
01:50PM 38.9757 -105.8970 70° East 473 544 35,000  Level FlightAware ADS-B
01:51PM 39.0061 -105.7900 70° East 475 547 35,000  Level FlightAware ADS-B
01:51PM 39.0318 -105.6990 70° East 475 547 35,000  Level FlightAware ADS-B
01:52PM 39.0546 -105.6180 70° East 474 545 35,000  Level FlightAware ADS-B
01:52PM 39.0821 -105.5200 70° East 475 547 35,000  Level FlightAware ADS-B
01:53PM 39.1054 -105.4360 70° East 475 547 35,000  Level FlightAware ADS-B
01:53PM 39.1273 -105.3580 70° East 475 547 35,000  Level FlightAware ADS-B
01:54PM 39.1498 -105.2760 70° East 475 547 35,000  Level FlightAware ADS-B
01:54PM 39.1726 -105.1940 70° East 476 548 35,000  Level FlightAware ADS-B
01:55PM 39.1954 -105.1120 70° East 476 548 35,000  Level FlightAware ADS-B
01:55PM 39.2176 -105.0310 70° East 478 550 35,000  Level FlightAware ADS-B
01:56PM 39.2403 -104.9480 71° East 480 552 35,000  Level FlightAware ADS-B
01:56PM 39.2629 -104.8650 71° East 480 552 35,000  Level FlightAware ADS-B
01:57PM 39.2847 -104.7850 71° East 480 552 35,000  Level FlightAware ADS-B
01:57PM 39.3071 -104.7020 71° East 480 552 35,000  Level FlightAware ADS-B
01:58PM 39.3295 -104.6200 71° East 480 552 35,000  Level FlightAware ADS-B
01:58PM 39.3527 -104.5340 71° East 479 551 35,000  Level FlightAware ADS-B
01:59PM 39.3742 -104.4540 71° East 478 550 35,000  Level FlightAware ADS-B
01:59PM 39.3962 -104.3720 71° East 477 549 35,000  Level FlightAware ADS-B
02:00PM 39.4184 -104.2890 71° East 476 548 35,000  Level FlightAware ADS-B
02:00PM 39.4399 -104.2080 71° East 475 547 35,000  Level FlightAware ADS-B
02:01PM 39.4621 -104.1240 71° East 474 545 35,000  Level FlightAware ADS-B
02:01PM 39.4835 -104.0430 71° East 474 545 35,000  Level FlightAware ADS-B
02:02PM 39.5052 -103.9610 71° East 474 545 35,000  Level FlightAware ADS-B
02:03PM 39.5266 -103.8800 71° East 474 545 35,000  Level FlightAware ADS-B
02:03PM 39.5479 -103.7980 71° East 474 545 35,000  Level FlightAware ADS-B
02:04PM 39.5702 -103.7140 71° East 475 547 35,000  Level FlightAware ADS-B
02:04PM 39.5915 -103.6310 72° East 476 548 35,000  Level FlightAware ADS-B
02:05PM 39.6123 -103.5510 71° East 476 548 35,000  Level FlightAware ADS-B
02:05PM 39.6334 -103.4690 72° East 475 547 35,000  Level FlightAware ADS-B
02:06PM 39.6549 -103.3860 71° East 476 548 35,000  Level FlightAware ADS-B
02:06PM 39.6758 -103.3040 72° East 476 548 35,000  Level FlightAware ADS-B
02:06PM 39.6933 -103.2360 71° East 476 548 35,000  Level FlightAware ADS-B
02:07PM 39.7050 -103.1960 69° East 477 549 35,000  Level FlightAware ADS-B
02:07PM 39.7322 -103.1170 66° East 478 550 35,000  Level FlightAware ADS-B
02:08PM 39.7585 -103.0400 66° East 478 550 35,000  Level FlightAware ADS-B
02:08PM 39.7858 -102.9600 66° East 478 550 35,000 60 Level FlightAware ADS-B
02:09PM 39.8134 -102.8790 66° East 477 549 35,100  Climbing FlightAware ADS-B
02:09PM 39.8406 -102.7990 66° East 476 548 35,000 -120 Descending FlightAware ADS-B
02:10PM 39.8673 -102.7190 66° East 477 549 35,000  Level FlightAware ADS-B
02:10PM 39.8945 -102.6390 66° East 478 550 35,000  Level FlightAware ADS-B
02:11PM 39.9216 -102.5590 66° East 479 551 35,000  Level FlightAware ADS-B
02:11PM 39.9478 -102.4810 66° East 480 552 35,000  Level FlightAware ADS-B
02:12PM 39.9747 -102.4000 67° East 481 554 35,000  Level FlightAware ADS-B
02:12PM 40.0019 -102.3180 67° East 482 555 35,000  Level FlightAware ADS-B
02:13PM 40.0285 -102.2380 67° East 481 554 35,000  Level FlightAware ADS-B
02:13PM 40.0548 -102.1590 66° East 481 554 35,000  Level FlightAware ADS-B
02:14PM 40.0816 -102.0780 67° East 480 552 35,000  Level FlightAware ADS-B
02:14PM 40.1081 -101.9970 67° East 478 550 35,000  Level FlightAware ADS-B
02:15PM 40.1349 -101.9160 67° East 476 548 35,000  Level FlightAware ADS-B
02:15PM 40.1607 -101.8370 67° East 475 547 35,000  Level FlightAware ADS-B
02:16PM 40.1872 -101.7560 67° East 476 548 35,000  Level FlightAware ADS-B
02:16PM 40.1978 -101.7222 78° East 477 549 35,000  Level Denver Center
02:16PM 40.2142 -101.6730 67° East 476 548 35,000  Level FlightAware ADS-B
02:17PM 40.2401 -101.5930 67° East 475 547 35,000  Level FlightAware ADS-B
02:17PM 40.2553 -101.5456 67° East 475 547 35,000  Level Denver Center
02:17PM 40.2654 -101.5150 67° East 477 549 35,000  Level FlightAware ADS-B
02:18PM 40.2912 -101.4350 67° East 478 550 35,000  Level FlightAware ADS-B
02:18PM 40.3044 -101.3925 67° East 476 548 35,000  Level Denver Center
02:18PM 40.3176 -101.3530 67° East 478 550 35,000  Level FlightAware ADS-B
02:19PM 40.3442 -101.2700 67° East 478 550 35,000  Level FlightAware ADS-B
02:19PM 40.3614 -101.2136 67° East 477 549 35,000  Level Denver Center
02:19PM 40.3708 -101.1870 67° East 478 550 35,000  Level FlightAware ADS-B
02:20PM 40.3967 -101.1050 67° East 479 551 35,000  Level FlightAware ADS-B
02:20PM 40.4117 -101.0614 67° East 478 550 35,000  Level Denver Center
02:21PM 40.4628 -100.8792 70° East 480 552 35,000  Level Denver Center
02:22PM 40.4580 -100.8662 78° East  Level FlightAware Approximate
02:22PM 40.4875 -100.7144 79° East 485 558 35,000  Level Denver Center
02:24PM 40.5306 -100.4539 78° East 486 559 35,000  Level Minneapolis Center
02:24PM 40.5444 -100.3572 79° East 487 560 35,000  Level Denver Center
02:27PM 40.6003 -99.9947 78° East 490 564 35,000  Level Denver Center
02:28PM 40.6264 -99.8219 79° East 491 565 35,000  Level Denver Center
02:30PM 40.6844 -99.4347 79° East 492 566 35,000  Level Denver Center
02:31PM 40.7097 -99.2567 79° East 496 571 35,000  Level Denver Center
02:32PM 40.7361 -99.0806 79° East 493 567 35,000  Level Denver Center
02:32PM 40.7489 -98.9953 79° East 494 568 35,000  Level Minneapolis Center
02:33PM 40.7736 -98.8169 80° East 495 570 35,000  Level Minneapolis Center
02:34PM 40.8044 -98.6028 79° East 495 570 35,000  Level Minneapolis Center
02:35PM 40.8283 -98.4228 80° East 497 572 35,000  Level Minneapolis Center
02:36PM 40.8564 -98.2314 79° East 496 571 35,000  Level Minneapolis Center
02:37PM 40.8789 -98.0528 80° East 496 571 35,000  Level Minneapolis Center
02:38PM 40.9039 -97.8736 79° East 497 572 35,000  Level Minneapolis Center
02:39PM 40.9272 -97.6958 80° East 494 568 35,000  Level Minneapolis Center
02:40PM 40.9492 -97.5183 81° East 491 565 35,000  Level Minneapolis Center
02:42PM 40.9753 -97.3172 80° East 492 566 35,000  Level Minneapolis Center
02:43PM 40.9981 -97.1383 80° East 493 567 35,000  Level Minneapolis Center
02:45PM 41.0428 -96.7806 80° East 492 566 35,000  Level Minneapolis Center
02:47PM 41.0911 -96.3917 81° East 488 562 35,000  Level Minneapolis Center
02:48PM 41.1108 -96.2203 81° East 479 551 35,000  Level Minneapolis Center
02:49PM 41.1333 -96.0297 81° East 478 550 35,000  Level Minneapolis Center
02:55PM 41.2700 -94.9800 81° East 450 518 35,000  Level FlightAware
02:56PM 41.2860 -94.8640 80° East 453 521 35,000  Level FlightAware
02:56PM 41.2980 -94.7720 80° East 453 521 35,000  Level FlightAware
02:57PM 41.3100 -94.6790 80° East 453 521 35,000 60 Level FlightAware
02:58PM 41.3310 -94.5100 81° East 455 524 35,100 60 Climbing FlightAware
02:59PM 41.3470 -94.3860 80° East 453 521 35,100 -120 Level FlightAware
02:59PM 41.3620 -94.2660 81° East 451 519 35,000 -120 Descending FlightAware
03:00PM 41.3790 -94.1310 80° East 448 516 35,000  Level FlightAware
03:01PM 41.3920 -94.0230 81° East 447 514 35,000  Level FlightAware
03:02PM 41.4050 -93.9160 81° East 448 516 35,000  Level FlightAware
03:02PM 41.4200 -93.7950 81° East 450 518 35,000  Level FlightAware
03:03PM 41.4340 -93.6820 81° East 452 520 35,000  Level FlightAware
03:04PM 41.4470 -93.5950 79° East 453 521 35,000 60 Level FlightAware
03:04PM 41.4660 -93.4840 77° East 453 521 35,100 420 Climbing FlightAware
03:05PM 41.4920 -93.3610 74° East 449 517 35,600 960 Climbing FlightAware
03:06PM 41.5120 -93.2630 75° East 436 502 36,500 900 Climbing FlightAware
03:06PM 41.5370 -93.1340 75° East 437 503 36,900 300 Climbing FlightAware
03:07PM 41.5580 -93.0310 75° East 434 499 37,000 60 Climbing FlightAware
03:08PM 41.5820 -92.9100 75° East 437 503 37,000  Level FlightAware
03:08PM 41.6010 -92.8110 76° East 422 486 37,000  Level FlightAware
03:09PM 41.6200 -92.7090 76° East 418 481 37,000  Level FlightAware
03:10PM 41.6410 -92.6000 76° East 420 483 37,000  Level FlightAware
03:11PM 41.6610 -92.4970 75° East 416 479 37,000  Level FlightAware
03:11PM 41.6810 -92.3910 76° East 415 478 37,000  Level FlightAware
03:12PM 41.7000 -92.2930 75° East 415 478 37,000  Level FlightAware
03:13PM 41.7200 -92.1870 76° East 415 478 37,000  Level FlightAware
03:13PM 41.7420 -92.0720 76° East 414 476 37,000  Level FlightAware
03:14PM 41.7590 -91.9770 76° East 414 476 37,000  Level FlightAware
03:15PM 41.7780 -91.8780 76° East 414 476 37,000  Level FlightAware
03:15PM 41.7980 -91.7660 76° East 414 476 37,000  Level FlightAware
03:16PM 41.8170 -91.6630 76° East 421 484 37,000  Level FlightAware
03:17PM 41.8350 -91.5640 76° East 427 491 37,000  Level FlightAware
03:18PM 41.8570 -91.4440 76° East 428 493 37,000  Level FlightAware
03:18PM 41.8740 -91.3490 76° East 424 488 37,000  Level FlightAware
03:19PM 41.8940 -91.2410 76° East 422 486 37,000  Level FlightAware
03:20PM 41.9120 -91.1370 77° East 421 484 37,000  Level FlightAware
03:20PM 41.9340 -91.0150 76° East 419 482 37,000  Level FlightAware
03:21PM 41.9510 -90.9140 77° East 417 480 37,000  Level FlightAware
03:22PM 41.9700 -90.8100 76° East 415 478 37,000  Level FlightAware
03:22PM 41.9880 -90.7020 77° East 411 473 37,000  Level FlightAware
03:23PM 42.0050 -90.6040 77° East 409 471 37,000  Level FlightAware
03:24PM 42.0230 -90.5030 76° East 410 472 37,000  Level FlightAware
03:25PM 42.0420 -90.3930 77° East 411 473 37,000  Level FlightAware
03:25PM 42.0590 -90.2930 77° East 412 474 37,000  Level FlightAware
03:26PM 42.0780 -90.1780 77° East 412 474 37,000  Level FlightAware
03:27PM 42.0950 -90.0770 77° East 412 474 37,000  Level FlightAware
03:27PM 42.1130 -89.9700 77° East 411 473 37,000  Level FlightAware
03:28PM 42.1300 -89.8670 77° East 412 474 37,000  Level FlightAware
03:29PM 42.1460 -89.7710 77° East 412 474 37,000  Level FlightAware
03:29PM 42.1650 -89.6550 78° East 413 475 37,000  Level FlightAware
03:30PM 42.1820 -89.5500 78° East 412 474 37,000  Level FlightAware
03:32PM 42.2150 -89.3480 77° East 413 475 37,000  Level FlightAware
03:32PM 42.2330 -89.2350 78° East 413 475 37,000  Level FlightAware
03:33PM 42.2500 -89.1250 78° East 414 476 37,000  Level FlightAware
03:34PM 42.2660 -89.0230 78° East 414 476 37,000  Level FlightAware
03:34PM 42.2820 -88.9250 78° East 415 478 37,000  Level FlightAware
03:35PM 42.3000 -88.8100 78° East 415 478 37,000  Level FlightAware
03:36PM 42.3150 -88.7120 78° East 415 478 37,000  Level FlightAware
03:36PM 42.3310 -88.6090 78° East 416 479 37,000  Level FlightAware
03:37PM 42.3470 -88.5060 78° East 416 479 37,000  Level FlightAware
03:38PM 42.3620 -88.4030 79° East 417 480 37,000  Level FlightAware
03:39PM 42.3820 -88.2740 78° East 417 480 37,000  Level FlightAware
03:39PM 42.3960 -88.1770 79° East 417 480 37,000  Level FlightAware
03:40PM 42.4120 -88.0730 78° East 418 481 37,000  Level FlightAware
03:41PM 42.4290 -87.9590 79° East 416 479 37,000  Level FlightAware
03:41PM 42.4440 -87.8570 79° East 416 479 37,000  Level FlightAware
03:42PM 42.4580 -87.7560 79° East 416 479 37,000  Level FlightAware
03:43PM 42.4740 -87.6480 79° East 416 479 37,000  Level FlightAware
03:43PM 42.4900 -87.5400 79° East 417 480 37,000  Level FlightAware
03:44PM 42.5070 -87.4210 79° East 416 479 37,000  Level FlightAware
03:45PM 42.5200 -87.3240 80° East 416 479 37,000  Level FlightAware
03:46PM 42.5370 -87.2050 79° East 416 479 37,000  Level FlightAware
03:46PM 42.5500 -87.1160 79° East 416 479 37,000  Level FlightAware
03:47PM 42.5630 -87.0200 80° East 416 479 37,000  Level FlightAware
03:48PM 42.5810 -86.8860 80° East 417 480 37,000  Level FlightAware
03:48PM 42.5950 -86.7830 80° East 418 481 37,000  Level FlightAware
03:49PM 42.6090 -86.6840 79° East 418 481 37,000  Level FlightAware
03:50PM 42.6250 -86.5660 80° East 419 482 37,000  Level FlightAware
03:50PM 42.6390 -86.4580 80° East 419 482 37,000  Level FlightAware
03:51PM 42.6540 -86.3470 80° East 420 483 37,000  Level FlightAware
03:52PM 42.6690 -86.2340 80° East 421 484 37,000  Level FlightAware
03:52PM 42.6820 -86.1350 80° East 421 484 37,000  Level FlightAware
03:53PM 42.6980 -86.0140 80° East 422 486 37,000  Level FlightAware
03:54PM 42.7090 -85.9250 80° East 423 487 37,000  Level FlightAware
03:55PM 42.7250 -85.8000 80° East 424 488 37,000  Level FlightAware
03:55PM 42.7390 -85.6930 80° East 424 488 37,000  Level FlightAware
03:56PM 42.7520 -85.5890 80° East 424 488 37,000  Level FlightAware
03:57PM 42.7650 -85.4840 80° East 424 488 37,000  Level FlightAware
03:57PM 42.7800 -85.3600 81° East 425 489 37,000  Level FlightAware
03:58PM 42.7950 -85.2420 80° East 425 489 37,000  Level FlightAware
03:59PM 42.8070 -85.1410 81° East 425 489 37,000  Level FlightAware
03:59PM 42.8200 -85.0320 81° East 425 489 37,000  Level FlightAware
04:00PM 42.8350 -84.9100 80° East 426 490 37,000  Level FlightAware
04:01PM 42.8470 -84.8080 81° East 426 490 37,000  Level FlightAware
04:02PM 42.8610 -84.6900 81° East 427 491 37,000  Level FlightAware
04:02PM 42.8730 -84.5810 81° East 427 491 37,000  Level FlightAware
04:03PM 42.8860 -84.4750 80° East 428 493 37,000  Level FlightAware
04:04PM 42.8990 -84.3550 82° East 428 493 37,000  Level FlightAware
04:04PM 42.9110 -84.2490 81° East 428 493 37,000  Level FlightAware
04:05PM 42.9250 -84.1310 81° East 427 491 37,000  Level FlightAware
04:06PM 42.9360 -84.0310 81° East 427 491 37,000  Level FlightAware
04:06PM 42.9480 -83.9220 81° East 427 491 37,000  Level FlightAware
04:07PM 42.9600 -83.8150 81° East 428 493 37,000  Level FlightAware
04:08PM 42.9690 -83.6860 85° East 428 493 37,000  Level FlightAware
04:09PM 42.9730 -83.5890 87° East 429 494 37,000  Level FlightAware
04:09PM 42.9780 -83.4650 87° East 430 495 37,000  Level FlightAware
04:10PM 42.9810 -83.3570 88° East 430 495 37,000  Level FlightAware
04:11PM 42.9880 -83.1780 87° East 429 494 37,000  Level FlightAware
04:12PM 42.9910 -83.0780 88° East 429 494 37,000  Level FlightAware
04:13PM 42.9950 -82.9520 87° East 428 493 37,000  Level FlightAware
04:13PM 42.9980 -82.8500 88° East 427 491 37,000  Level FlightAware
04:14PM 43.0020 -82.7370 87° East 427 491 37,000  Level FlightAware
04:15PM 43.0050 -82.6140 88° East 428 493 37,000  Level FlightAware
04:15PM 43.0080 -82.5230 87° East 429 494 37,000  Level FlightAware
04:16PM 43.0120 -82.3920 88° East 430 495 37,000  Level FlightAware
04:17PM 43.0140 -82.2930 88° East 430 495 37,000  Level FlightAware
04:17PM 43.0180 -82.1560 88° East 431 496 37,000  Level FlightAware
04:18PM 43.0200 -82.0650 88° East 430 495 37,000  Level FlightAware
04:19PM 43.0230 -81.9390 88° East 431 496 37,000  Level FlightAware
04:19PM 43.0250 -81.8620 88° East 431 496 37,000  Level FlightAware
04:20PM 43.0270 -81.7400 89° East 433 498 37,000  Level FlightAware
04:21PM 43.0310 -81.5730 88° East 436 502 37,000  Level FlightAware
04:22PM 43.0330 -81.4430 89° East 437 503 37,000  Level FlightAware
04:23PM 43.0350 -81.3370 88° East 437 503 37,000  Level FlightAware
04:23PM 43.0370 -81.2050 89° East 438 504 37,000  Level FlightAware
04:24PM 43.0400 -81.0860 88° East 438 504 37,000  Level FlightAware
04:25PM 43.0440 -80.9690 87° East 439 505 37,000  Level FlightAware
04:25PM 43.0480 -80.8740 87° East 439 505 37,000  Level FlightAware
04:26PM 43.0530 -80.7420 87° East 438 504 37,000  Level FlightAware
04:27PM 43.0580 -80.6050 87° East 440 506 37,000  Level FlightAware
04:27PM 43.0620 -80.4840 87° East 442 509 37,000  Level FlightAware
04:28PM 43.0650 -80.3630 88° East 443 510 37,000  Level FlightAware
04:29PM 43.0690 -80.2510 87° East 443 510 37,000  Level FlightAware
04:30PM 43.0720 -80.1370 88° East 443 510 37,000  Level FlightAware
04:30PM 43.0760 -80.0110 87° East 444 511 37,000  Level FlightAware
04:31PM 43.0790 -79.9040 88° East 445 512 37,000  Level FlightAware
04:32PM 43.0820 -79.7740 88° East 451 519 37,000  Level FlightAware
04:32PM 43.0850 -79.6610 88° East 452 520 37,000  Level FlightAware
04:33PM 43.0880 -79.5460 88° East 452 520 37,000  Level FlightAware
04:34PM 43.0910 -79.4160 88° East 453 521 37,000  Level FlightAware
04:34PM 43.0930 -79.3230 88° East 454 522 37,000  Level FlightAware
04:35PM 43.0960 -79.1710 88° East 454 522 37,000  Level FlightAware
04:36PM 43.0990 -79.0620 88° East 454 522 37,000  Level FlightAware
04:37PM 43.1010 -78.9420 89° East 455 524 37,000  Level FlightAware
04:37PM 43.0880 -78.8170 98° East 457 526 37,000  Level FlightAware
04:38PM 43.0450 -78.7180 121° Southeast 454 522 37,000 60 Level FlightAware
04:39PM 43.0030 -78.6020 116° Southeast 454 522 37,100  Climbing FlightAware
04:39PM 42.9980 -78.4910 93° East 452 520 37,000 -120 Descending FlightAware
04:40PM 42.9950 -78.3760 92° East 449 517 37,000  Level FlightAware
04:41PM 42.9900 -78.2510 93° East 449 517 37,000  Level FlightAware
04:41PM 42.9860 -78.1420 93° East 450 518 37,000  Level FlightAware
04:42PM 42.9820 -78.0130 92° East 450 518 37,000  Level FlightAware
04:43PM 42.9770 -77.8920 93° East 452 520 37,000  Level FlightAware
04:44PM 42.9730 -77.7780 93° East 452 520 37,000  Level FlightAware
04:44PM 42.9680 -77.6540 93° East 453 521 37,000  Level FlightAware
04:45PM 42.9630 -77.5440 94° East 454 522 37,000  Level FlightAware
04:46PM 42.9580 -77.4210 93° East 454 522 37,000  Level FlightAware
04:46PM 42.9530 -77.3020 93° East 454 522 37,000  Level FlightAware
04:47PM 42.9480 -77.1890 93° East 455 524 37,000  Level FlightAware
04:48PM 42.9420 -77.0590 94° East 455 524 37,000  Level FlightAware
04:48PM 42.9370 -76.9490 94° East 456 525 37,000  Level FlightAware
04:49PM 42.9320 -76.8390 94° East 457 526 37,000  Level FlightAware
04:50PM 42.9250 -76.7010 94° East 457 526 37,000  Level FlightAware
04:51PM 42.9200 -76.5860 93° East 457 526 37,000  Level FlightAware
04:51PM 42.9140 -76.4610 94° East 456 525 37,000  Level FlightAware
04:52PM 42.9070 -76.3300 94° East 459 528 37,000  Level FlightAware
04:53PM 42.9010 -76.2120 94° East 462 532 37,000  Level FlightAware
04:53PM 42.8950 -76.1000 94° East 462 532 37,000  Level FlightAware
04:54PM 42.8880 -75.9740 94° East 461 531 37,000  Level FlightAware
04:55PM 42.8810 -75.8510 94° East 461 531 37,000  Level FlightAware
04:56PM 42.8740 -75.7210 94° East 461 531 37,000  Level FlightAware
04:56PM 42.8670 -75.6060 95° East 459 528 37,000  Level FlightAware
04:57PM 42.8610 -75.4960 94° East 458 527 37,000  Level FlightAware
04:58PM 42.8530 -75.3630 95° East 460 529 37,000  Level FlightAware
04:58PM 42.8460 -75.2470 95° East 461 531 37,000  Level FlightAware
04:59PM 42.8380 -75.1210 95° East 462 532 37,000  Level FlightAware
05:00PM 42.8300 -75.0050 95° East 463 533 37,000  Level FlightAware
05:00PM 42.8220 -74.8840 95° East 463 533 37,000  Level FlightAware
05:01PM 42.8140 -74.7530 95° East 463 533 37,000  Level FlightAware
05:02PM 42.8080 -74.6600 95° East 464 534 37,000  Level FlightAware
05:03PM 42.7980 -74.5080 95° East 467 537 37,000  Level FlightAware
05:03PM 42.7910 -74.4090 95° East 468 539 37,000 -480 Level FlightAware
05:04PM 42.7840 -74.3070 95° East 469 540 36,500 -1,020 Descending FlightAware
05:04PM 42.7740 -74.1620 95° East 468 539 35,700 -540 Descending FlightAware
05:05PM 42.7660 -74.0470 95° East 468 539 35,700 -780 Level FlightAware
05:06PM 42.7530 -73.8620 95° East 473 544 34,400 -780 Descending FlightAware
05:07PM 42.7460 -73.7610 95° East 473 544 34,400 -1,200 Level FlightAware
05:08PM 42.7270 -73.6030 99° East 471 542 32,700 -1,620 Descending FlightAware
05:08PM 42.7130 -73.4810 99° East 471 542 32,000 -1,020 Descending FlightAware
05:09PM 42.7020 -73.3700 98° East 473 544 31,400 -1,020 Descending FlightAware
05:10PM 42.6880 -73.2400 98° East 471 542 30,700 -1,020 Descending FlightAware
05:10PM 42.6740 -73.1200 99° East 469 540 30,000 -1,020 Descending FlightAware
05:11PM 42.6600 -72.9930 98° East 468 539 29,300 -960 Descending FlightAware
05:12PM 42.6470 -72.8750 98° East 469 540 28,700 -1,200 Descending FlightAware
05:13PM 42.6310 -72.7400 99° East 466 536 27,600 -1,920 Descending FlightAware
05:13PM 42.6170 -72.6280 100° East 450 518 26,000 -2,520 Descending FlightAware
05:14PM 42.6020 -72.5070 100° East 432 497 24,100 -2,520 Descending FlightAware
05:15PM 42.5890 -72.4030 100° East 419 482 22,500 -2,400 Descending FlightAware
05:15PM 42.5770 -72.2980 99° East 424 488 20,900 -2,400 Descending FlightAware
05:16PM 42.5620 -72.1790 100° East 416 479 19,100 -2,340 Descending FlightAware
05:17PM 42.5490 -72.0770 100° East 411 473 17,600 -2,400 Descending FlightAware
05:17PM 42.5370 -71.9660 98° East 401 461 15,700 -2,400 Descending FlightAware
05:18PM 42.5290 -71.8670 96° East 394 453 14,200 -2,220 Descending FlightAware
05:19PM 42.5200 -71.7690 97° East 392 451 12,800 -2,160 Descending FlightAware
05:20PM 42.5100 -71.6570 97° East 387 445 11,200 -1,440 Descending FlightAware
05:20PM 42.5010 -71.5640 97° East 356 410 10,800 -600 Descending FlightAware
05:21PM 42.4920 -71.4740 98° East 315 362 10,400 -900 Descending FlightAware
05:21PM 42.4870 -71.4240 98° East 307 353 9,800 -1,320 Descending FlightAware
05:22PM 42.4820 -71.3680 97° East 299 344 9,200 -1,140 Descending FlightAware
05:22PM 42.4770 -71.3230 99° East 295 339 8,800 -900 Descending FlightAware
05:23PM 42.4750 -71.2940 95° East 295 339 8,600 -720 Descending FlightAware
05:23PM 42.4700 -71.2410 97° East 277 319 8,300 -780 Descending FlightAware
05:23PM 42.4660 -71.2000 98° East 255 293 7,900 -780 Descending FlightAware
05:24PM 42.4620 -71.1540 97° East 243 280 7,600 -540 Descending FlightAware
05:24PM 42.4600 -71.1330 97° East 241 277 7,500 -600 Descending FlightAware
05:25PM 42.4560 -71.0950 98° East 239 275 7,200 -660 Descending FlightAware
05:25PM 42.4520 -71.0500 97° East 238 274 6,900 -540 Descending FlightAware
05:26PM 42.4350 -71.0160 124° Southeast 228 262 6,700 -360 Descending FlightAware
05:26PM 42.4100 -71.0010 156° South 234 269 6,600 -360 Descending FlightAware
05:26PM 42.3880 -70.9860 153° Southeast 235 270 6,400 -480 Descending FlightAware
05:27PM 42.3720 -70.9750 153° Southeast 237 273 6,300 -300 Descending FlightAware
05:27PM 42.3450 -70.9570 154° Southeast 233 268 6,200 -300 Descending FlightAware
05:28PM 42.3150 -70.9380 155° Southeast 205 236 6,000 -360 Descending FlightAware
05:28PM 42.2930 -70.9420 188° South 205 236 5,900 -780 Descending FlightAware
05:29PM 42.2670 -70.9550 200° South 188 216 5,300 -1,500 Descending FlightAware
05:29PM 42.2400 -70.9660 197° South 190 219 4,400 -1,560 Descending FlightAware
05:29PM 42.2390 -70.9660 180° South 188 216 4,400 -720 Level FlightAware
05:30PM 42.2040 -70.9800 197° South 184 212 3,800 -1,080 Descending FlightAware
05:31PM 42.1722 -70.9947 197° South 190 219 3,000 -900 Descending Boston Center
05:31PM 42.1500 -71.0000 190° South 179 206 3,000  Level KA90
05:33PM 42.0853 -71.0386 204° Southwest 185 213 3,000  Level Boston Center
05:33PM 42.0667 -71.0667 228° Southwest 189 217 3,000  Level KA90
05:34PM 42.0833 -71.1167 294° West 187 215 3,000  Level KA90
05:35PM 42.1333 -71.1167 360° North 189 217 3,000  Level KA90
05:36PM 42.1833 -71.1000 14° North 190 219 3,000 -540 Level KA90
05:38PM 42.3469 -71.0000 North  Level FlightAware Approximate
05:39PM 42.3167 -71.0333 North 144 166 900  Level KA90
05:45PM 42.3500 -71.0000 North  Level FlightAware Approximate